sensor_id;sensor_type;location;lat;lon;timestamp;pressure;altitude;pressure_sealevel;temperature
68745;BMP180;55731;45.456;11.064;2022-11-15T00:02:25;101053.00;;;9.94
68745;BMP180;55731;45.456;11.064;2022-11-15T00:05:21;101061.20;;;10.00
68745;BMP180;55731;45.456;11.064;2022-11-15T00:08:17;101062.40;;;10.00
68745;BMP180;55731;45.456;11.064;2022-11-15T00:11:16;101065.80;;;10.02
68745;BMP180;55731;45.456;11.064;2022-11-15T00:14:14;101066.20;;;10.00
68745;BMP180;55731;45.456;11.064;2022-11-15T00:17:09;101063.40;;;10.00
68745;BMP180;55731;45.456;11.064;2022-11-15T00:20:06;101058.60;;;9.90
68745;BMP180;55731;45.456;11.064;2022-11-15T00:23:05;101060.00;;;9.80
68745;BMP180;55731;45.456;11.064;2022-11-15T00:26:03;101057.40;;;9.64
68745;BMP180;55731;45.456;11.064;2022-11-15T00:28:58;101054.80;;;9.58
68745;BMP180;55731;45.456;11.064;2022-11-15T00:31:54;101058.00;;;9.60
68745;BMP180;55731;45.456;11.064;2022-11-15T00:34:49;101053.60;;;9.70
68745;BMP180;55731;45.456;11.064;2022-11-15T00:37:45;101054.60;;;9.80
68745;BMP180;55731;45.456;11.064;2022-11-15T00:40:40;101049.40;;;9.80
68745;BMP180;55731;45.456;11.064;2022-11-15T00:43:35;101050.80;;;9.90
68745;BMP180;55731;45.456;11.064;2022-11-15T00:46:32;101050.60;;;9.80
68745;BMP180;55731;45.456;11.064;2022-11-15T00:49:27;101052.60;;;9.80
68745;BMP180;55731;45.456;11.064;2022-11-15T00:52:23;101046.60;;;9.80
68745;BMP180;55731;45.456;11.064;2022-11-15T00:55:20;101043.40;;;9.80
68745;BMP180;55731;45.456;11.064;2022-11-15T00:58:15;101040.60;;;9.80
68745;BMP180;55731;45.456;11.064;2022-11-15T01:01:16;101042.80;;;9.80
68745;BMP180;55731;45.456;11.064;2022-11-15T01:04:11;101044.40;;;9.80
68745;BMP180;55731;45.456;11.064;2022-11-15T01:07:07;101046.20;;;9.74
68745;BMP180;55731;45.456;11.064;2022-11-15T01:10:02;101040.40;;;9.80
68745;BMP180;55731;45.456;11.064;2022-11-15T01:12:58;101037.60;;;9.82
68745;BMP180;55731;45.456;11.064;2022-11-15T01:15:55;101036.00;;;9.80
68745;BMP180;55731;45.456;11.064;2022-11-15T01:18:51;101025.40;;;9.70
68745;BMP180;55731;45.456;11.064;2022-11-15T01:21:46;101026.60;;;9.60
68745;BMP180;55731;45.456;11.064;2022-11-15T01:24:45;101024.40;;;9.60
68745;BMP180;55731;45.456;11.064;2022-11-15T01:27:42;101024.60;;;9.60
68745;BMP180;55731;45.456;11.064;2022-11-15T01:30:37;101023.40;;;9.60
68745;BMP180;55731;45.456;11.064;2022-11-15T01:33:33;101022.60;;;9.60
68745;BMP180;55731;45.456;11.064;2022-11-15T01:36:29;101024.60;;;9.60
68745;BMP180;55731;45.456;11.064;2022-11-15T01:39:24;101022.80;;;9.60
68745;BMP180;55731;45.456;11.064;2022-11-15T01:42:21;101020.00;;;9.60
68745;BMP180;55731;45.456;11.064;2022-11-15T01:45:18;101022.80;;;9.50
68745;BMP180;55731;45.456;11.064;2022-11-15T01:48:15;101018.00;;;9.48
68745;BMP180;55731;45.456;11.064;2022-11-15T01:51:15;101010.20;;;9.30
68745;BMP180;55731;45.456;11.064;2022-11-15T01:54:17;101001.40;;;9.10
68745;BMP180;55731;45.456;11.064;2022-11-15T01:57:15;100995.20;;;9.00
68745;BMP180;55731;45.456;11.064;2022-11-15T02:00:18;100992.60;;;9.04
68745;BMP180;55731;45.456;11.064;2022-11-15T02:03:15;100988.60;;;9.10
68745;BMP180;55731;45.456;11.064;2022-11-15T02:06:12;100987.80;;;9.00
68745;BMP180;55731;45.456;11.064;2022-11-15T02:09:08;100993.60;;;8.96
68745;BMP180;55731;45.456;11.064;2022-11-15T02:12:06;100989.80;;;9.00
68745;BMP180;55731;45.456;11.064;2022-11-15T02:15:03;100980.40;;;9.10
68745;BMP180;55731;45.456;11.064;2022-11-15T02:18:18;100978.40;;;9.20
68745;BMP180;55731;45.456;11.064;2022-11-15T02:21:28;100979.60;;;9.20
68745;BMP180;55731;45.456;11.064;2022-11-15T02:24:57;100979.00;;;9.12
68745;BMP180;55731;45.456;11.064;2022-11-15T02:28:34;100973.60;;;9.08
68745;BMP180;55731;45.456;11.064;2022-11-15T02:31:43;100969.20;;;9.00
68745;BMP180;55731;45.456;11.064;2022-11-15T02:34:54;100962.20;;;9.00
68745;BMP180;55731;45.456;11.064;2022-11-15T02:38:02;100957.40;;;8.98
68745;BMP180;55731;45.456;11.064;2022-11-15T02:41:06;100955.60;;;8.90
68745;BMP180;55731;45.456;11.064;2022-11-15T02:44:12;100951.20;;;8.90
68745;BMP180;55731;45.456;11.064;2022-11-15T02:47:14;100947.60;;;8.96
68745;BMP180;55731;45.456;11.064;2022-11-15T02:50:13;100945.20;;;9.10
68745;BMP180;55731;45.456;11.064;2022-11-15T02:53:12;100957.60;;;9.10
68745;BMP180;55731;45.456;11.064;2022-11-15T02:56:10;100951.80;;;9.10
68745;BMP180;55731;45.456;11.064;2022-11-15T03:06:20;100952.40;;;8.90
68745;BMP180;55731;45.456;11.064;2022-11-15T03:09:32;100961.00;;;8.90
68745;BMP180;55731;45.456;11.064;2022-11-15T03:12:38;100959.00;;;8.90
68745;BMP180;55731;45.456;11.064;2022-11-15T03:15:47;100955.40;;;8.90
68745;BMP180;55731;45.456;11.064;2022-11-15T03:18:52;100957.80;;;8.90
68745;BMP180;55731;45.456;11.064;2022-11-15T03:21:49;100958.20;;;8.90
68745;BMP180;55731;45.456;11.064;2022-11-15T03:24:50;100954.40;;;8.90
68745;BMP180;55731;45.456;11.064;2022-11-15T03:27:55;100954.20;;;8.90
68745;BMP180;55731;45.456;11.064;2022-11-15T03:30:54;100959.60;;;8.90
68745;BMP180;55731;45.456;11.064;2022-11-15T03:33:51;100956.80;;;8.80
68745;BMP180;55731;45.456;11.064;2022-11-15T03:36:49;100950.60;;;8.80
68745;BMP180;55731;45.456;11.064;2022-11-15T03:39:46;100946.20;;;8.80
68745;BMP180;55731;45.456;11.064;2022-11-15T03:42:48;100951.00;;;8.80
68745;BMP180;55731;45.456;11.064;2022-11-15T03:45:54;100952.80;;;8.80
68745;BMP180;55731;45.456;11.064;2022-11-15T03:48:59;100958.20;;;8.70
68745;BMP180;55731;45.456;11.064;2022-11-15T03:51:57;100958.20;;;8.60
68745;BMP180;55731;45.456;11.064;2022-11-15T03:54:56;100961.40;;;8.60
68745;BMP180;55731;45.456;11.064;2022-11-15T03:57:54;100960.80;;;8.60
68745;BMP180;55731;45.456;11.064;2022-11-15T04:00:51;100959.60;;;8.60
68745;BMP180;55731;45.456;11.064;2022-11-15T04:03:47;100954.80;;;8.60
68745;BMP180;55731;45.456;11.064;2022-11-15T04:06:42;100945.40;;;8.60
68745;BMP180;55731;45.456;11.064;2022-11-15T04:09:37;100932.20;;;8.60
68745;BMP180;55731;45.456;11.064;2022-11-15T04:12:52;100917.00;;;8.70
68745;BMP180;55731;45.456;11.064;2022-11-15T04:15:48;100911.00;;;8.70
68745;BMP180;55731;45.456;11.064;2022-11-15T04:18:44;100912.60;;;8.70
68745;BMP180;55731;45.456;11.064;2022-11-15T04:22:01;100911.40;;;8.70
68745;BMP180;55731;45.456;11.064;2022-11-15T04:25:13;100907.80;;;8.66
68745;BMP180;55731;45.456;11.064;2022-11-15T04:28:13;100904.40;;;8.60
68745;BMP180;55731;45.456;11.064;2022-11-15T04:31:10;100911.20;;;8.60
68745;BMP180;55731;45.456;11.064;2022-11-15T04:34:05;100913.40;;;8.50
68745;BMP180;55731;45.456;11.064;2022-11-15T04:37:00;100923.00;;;8.50
68745;BMP180;55731;45.456;11.064;2022-11-15T04:40:12;100918.40;;;8.40
68745;BMP180;55731;45.456;11.064;2022-11-15T04:43:08;100915.00;;;8.30
68745;BMP180;55731;45.456;11.064;2022-11-15T04:46:04;100913.20;;;8.30
68745;BMP180;55731;45.456;11.064;2022-11-15T04:48:59;100916.80;;;8.20
68745;BMP180;55731;45.456;11.064;2022-11-15T04:51:54;100914.80;;;8.10
68745;BMP180;55731;45.456;11.064;2022-11-15T04:54:54;100908.80;;;8.10
68745;BMP180;55731;45.456;11.064;2022-11-15T04:58:02;100907.60;;;8.10
68745;BMP180;55731;45.456;11.064;2022-11-15T05:00:57;100901.60;;;8.20
68745;BMP180;55731;45.456;11.064;2022-11-15T05:03:52;100895.60;;;8.20
68745;BMP180;55731;45.456;11.064;2022-11-15T05:07:04;100905.20;;;8.20
68745;BMP180;55731;45.456;11.064;2022-11-15T05:10:00;100905.20;;;8.20
68745;BMP180;55731;45.456;11.064;2022-11-15T05:12:54;100907.00;;;8.20
68745;BMP180;55731;45.456;11.064;2022-11-15T05:15:49;100906.60;;;8.20
68745;BMP180;55731;45.456;11.064;2022-11-15T05:18:45;100899.40;;;8.20
68745;BMP180;55731;45.456;11.064;2022-11-15T05:21:40;100899.40;;;8.20
68745;BMP180;55731;45.456;11.064;2022-11-15T05:24:35;100908.40;;;8.20
68745;BMP180;55731;45.456;11.064;2022-11-15T05:27:31;100912.40;;;8.20
68745;BMP180;55731;45.456;11.064;2022-11-15T05:30:27;100915.20;;;8.20
68745;BMP180;55731;45.456;11.064;2022-11-15T05:33:23;100911.40;;;8.20
68745;BMP180;55731;45.456;11.064;2022-11-15T05:36:25;100912.20;;;8.20
68745;BMP180;55731;45.456;11.064;2022-11-15T05:39:22;100923.00;;;8.14
68745;BMP180;55731;45.456;11.064;2022-11-15T05:42:19;100924.00;;;8.10
68745;BMP180;55731;45.456;11.064;2022-11-15T05:45:14;100929.00;;;8.20
68745;BMP180;55731;45.456;11.064;2022-11-15T05:48:18;100925.20;;;8.20
68745;BMP180;55731;45.456;11.064;2022-11-15T05:51:15;100919.60;;;8.30
68745;BMP180;55731;45.456;11.064;2022-11-15T05:54:12;100917.80;;;8.20
68745;BMP180;55731;45.456;11.064;2022-11-15T05:57:08;100919.20;;;8.14
68745;BMP180;55731;45.456;11.064;2022-11-15T06:00:04;100923.80;;;8.10
68745;BMP180;55731;45.456;11.064;2022-11-15T06:02:59;100926.20;;;8.00
68745;BMP180;55731;45.456;11.064;2022-11-15T06:05:55;100930.40;;;7.90
68745;BMP180;55731;45.456;11.064;2022-11-15T06:08:49;100935.00;;;7.80
68745;BMP180;55731;45.456;11.064;2022-11-15T06:11:44;100934.60;;;7.70
68745;BMP180;55731;45.456;11.064;2022-11-15T06:14:40;100935.20;;;7.66
68745;BMP180;55731;45.456;11.064;2022-11-15T06:17:35;100942.40;;;7.50
68745;BMP180;55731;45.456;11.064;2022-11-15T06:20:31;100945.40;;;7.40
68745;BMP180;55731;45.456;11.064;2022-11-15T06:23:27;100952.80;;;7.40
68745;BMP180;55731;45.456;11.064;2022-11-15T06:26:23;100953.40;;;7.40
68745;BMP180;55731;45.456;11.064;2022-11-15T06:29:18;100954.40;;;7.40
68745;BMP180;55731;45.456;11.064;2022-11-15T06:32:14;100957.00;;;7.40
68745;BMP180;55731;45.456;11.064;2022-11-15T06:35:13;100952.80;;;7.44
68745;BMP180;55731;45.456;11.064;2022-11-15T06:38:10;100963.80;;;7.40
68745;BMP180;55731;45.456;11.064;2022-11-15T06:41:10;100968.00;;;7.50
68745;BMP180;55731;45.456;11.064;2022-11-15T06:44:05;100973.20;;;7.60
68745;BMP180;55731;45.456;11.064;2022-11-15T06:47:00;100973.40;;;7.62
68745;BMP180;55731;45.456;11.064;2022-11-15T06:49:56;100968.60;;;7.70
68745;BMP180;55731;45.456;11.064;2022-11-15T06:52:51;100963.00;;;7.80
68745;BMP180;55731;45.456;11.064;2022-11-15T06:55:47;100964.20;;;7.80
68745;BMP180;55731;45.456;11.064;2022-11-15T06:58:46;100968.80;;;7.80
68745;BMP180;55731;45.456;11.064;2022-11-15T07:01:41;100970.60;;;7.80
68745;BMP180;55731;45.456;11.064;2022-11-15T07:04:36;100969.40;;;7.80
68745;BMP180;55731;45.456;11.064;2022-11-15T07:07:32;100966.20;;;7.74
68745;BMP180;55731;45.456;11.064;2022-11-15T07:10:28;100963.20;;;7.72
68745;BMP180;55731;45.456;11.064;2022-11-15T07:13:26;100968.20;;;7.80
68745;BMP180;55731;45.456;11.064;2022-11-15T07:16:21;100963.00;;;7.80
68745;BMP180;55731;45.456;11.064;2022-11-15T07:19:17;100958.60;;;7.80
68745;BMP180;55731;45.456;11.064;2022-11-15T07:22:11;100959.80;;;7.86
68745;BMP180;55731;45.456;11.064;2022-11-15T07:25:09;100956.20;;;7.90
68745;BMP180;55731;45.456;11.064;2022-11-15T07:28:05;100953.40;;;7.82
68745;BMP180;55731;45.456;11.064;2022-11-15T07:31:04;100949.40;;;7.90
68745;BMP180;55731;45.456;11.064;2022-11-15T07:33:59;100953.40;;;7.96
68745;BMP180;55731;45.456;11.064;2022-11-15T07:36:54;100956.20;;;8.00
68745;BMP180;55731;45.456;11.064;2022-11-15T07:39:50;100957.60;;;8.10
68745;BMP180;55731;45.456;11.064;2022-11-15T07:42:46;100962.00;;;8.20
68745;BMP180;55731;45.456;11.064;2022-11-15T07:45:50;100964.00;;;8.24
68745;BMP180;55731;45.456;11.064;2022-11-15T07:48:50;100958.40;;;8.30
68745;BMP180;55731;45.456;11.064;2022-11-15T07:51:45;100959.00;;;8.26
68745;BMP180;55731;45.456;11.064;2022-11-15T07:54:40;100958.80;;;8.20
68745;BMP180;55731;45.456;11.064;2022-11-15T07:57:35;100960.20;;;8.30
68745;BMP180;55731;45.456;11.064;2022-11-15T08:00:31;100960.00;;;8.30
68745;BMP180;55731;45.456;11.064;2022-11-15T08:03:26;100960.40;;;8.36
68745;BMP180;55731;45.456;11.064;2022-11-15T08:06:22;100953.20;;;8.40
68745;BMP180;55731;45.456;11.064;2022-11-15T08:09:18;100952.40;;;8.46
68745;BMP180;55731;45.456;11.064;2022-11-15T08:12:14;100953.40;;;8.50
68745;BMP180;55731;45.456;11.064;2022-11-15T08:15:16;100952.20;;;8.58
68745;BMP180;55731;45.456;11.064;2022-11-15T08:18:12;100948.60;;;8.60
68745;BMP180;55731;45.456;11.064;2022-11-15T08:21:09;100953.60;;;8.60
68745;BMP180;55731;45.456;11.064;2022-11-15T08:24:12;100954.80;;;8.60
68745;BMP180;55731;45.456;11.064;2022-11-15T08:27:08;100957.60;;;8.60
68745;BMP180;55731;45.456;11.064;2022-11-15T08:30:09;100959.20;;;8.60
68745;BMP180;55731;45.456;11.064;2022-11-15T08:33:05;100956.60;;;8.70
68745;BMP180;55731;45.456;11.064;2022-11-15T08:36:03;100956.60;;;8.70
68745;BMP180;55731;45.456;11.064;2022-11-15T08:38:58;100955.80;;;8.80
68745;BMP180;55731;45.456;11.064;2022-11-15T08:41:53;100957.80;;;8.82
68745;BMP180;55731;45.456;11.064;2022-11-15T08:44:47;100956.00;;;8.90
68745;BMP180;55731;45.456;11.064;2022-11-15T08:47:42;100962.60;;;8.90
68745;BMP180;55731;45.456;11.064;2022-11-15T08:50:44;100961.60;;;8.90
68745;BMP180;55731;45.456;11.064;2022-11-15T08:53:40;100954.20;;;8.96
68745;BMP180;55731;45.456;11.064;2022-11-15T08:56:35;100957.60;;;9.00
68745;BMP180;55731;45.456;11.064;2022-11-15T08:59:30;100956.00;;;9.00
68745;BMP180;55731;45.456;11.064;2022-11-15T09:02:25;100952.80;;;9.10
68745;BMP180;55731;45.456;11.064;2022-11-15T09:05:21;100953.20;;;9.10
68745;BMP180;55731;45.456;11.064;2022-11-15T09:08:16;100956.60;;;9.10
68745;BMP180;55731;45.456;11.064;2022-11-15T09:11:31;100954.40;;;9.20
68745;BMP180;55731;45.456;11.064;2022-11-15T09:14:26;100962.80;;;9.20
68745;BMP180;55731;45.456;11.064;2022-11-15T09:17:21;100958.20;;;9.30
68745;BMP180;55731;45.456;11.064;2022-11-15T09:20:17;100952.40;;;9.40
68745;BMP180;55731;45.456;11.064;2022-11-15T09:23:12;100951.20;;;9.50
68745;BMP180;55731;45.456;11.064;2022-11-15T09:26:07;100951.20;;;9.60
68745;BMP180;55731;45.456;11.064;2022-11-15T09:29:03;100949.80;;;9.70
68745;BMP180;55731;45.456;11.064;2022-11-15T09:32:01;100941.80;;;9.70
68745;BMP180;55731;45.456;11.064;2022-11-15T09:34:55;100938.40;;;9.80
68745;BMP180;55731;45.456;11.064;2022-11-15T09:37:51;100936.40;;;9.70
68745;BMP180;55731;45.456;11.064;2022-11-15T09:40:51;100934.40;;;9.80
68745;BMP180;55731;45.456;11.064;2022-11-15T09:44:07;100932.80;;;9.90
68745;BMP180;55731;45.456;11.064;2022-11-15T09:50:45;100934.40;;;10.00
68745;BMP180;55731;45.456;11.064;2022-11-15T09:53:34;100935.40;;;10.00
68745;BMP180;55731;45.456;11.064;2022-11-15T09:56:38;100933.00;;;10.00
68745;BMP180;55731;45.456;11.064;2022-11-15T09:59:37;100931.00;;;10.00
68745;BMP180;55731;45.456;11.064;2022-11-15T10:02:37;100918.80;;;10.08
68745;BMP180;55731;45.456;11.064;2022-11-15T10:05:22;100913.80;;;10.10
68745;BMP180;55731;45.456;11.064;2022-11-15T10:08:05;100911.20;;;10.20
68745;BMP180;55731;45.456;11.064;2022-11-15T10:10:49;100911.80;;;10.30
68745;BMP180;55731;45.456;11.064;2022-11-15T10:13:51;100920.80;;;10.40
68745;BMP180;55731;45.456;11.064;2022-11-15T10:20:13;100908.60;;;10.40
68745;BMP180;55731;45.456;11.064;2022-11-15T10:22:54;100901.60;;;10.40
68745;BMP180;55731;45.456;11.064;2022-11-15T10:25:32;100897.60;;;10.40
68745;BMP180;55731;45.456;11.064;2022-11-15T10:28:17;100892.60;;;10.40
68745;BMP180;55731;45.456;11.064;2022-11-15T10:30:58;100881.40;;;10.40
68745;BMP180;55731;45.456;11.064;2022-11-15T10:33:39;100873.20;;;10.40
68745;BMP180;55731;45.456;11.064;2022-11-15T10:36:26;100866.00;;;10.40
68745;BMP180;55731;45.456;11.064;2022-11-15T10:39:05;100862.80;;;10.40
68745;BMP180;55731;45.456;11.064;2022-11-15T10:41:43;100860.80;;;10.34
68745;BMP180;55731;45.456;11.064;2022-11-15T10:44:44;100860.80;;;10.38
68745;BMP180;55731;45.456;11.064;2022-11-15T10:47:34;100859.60;;;10.42
68745;BMP180;55731;45.456;11.064;2022-11-15T10:50:33;100853.40;;;10.50
68745;BMP180;55731;45.456;11.064;2022-11-15T10:53:24;100852.40;;;10.50
68745;BMP180;55731;45.456;11.064;2022-11-15T10:56:06;100844.60;;;10.50
68745;BMP180;55731;45.456;11.064;2022-11-15T10:58:58;100841.60;;;10.60
68745;BMP180;55731;45.456;11.064;2022-11-15T11:01:47;100835.20;;;10.50
68745;BMP180;55731;45.456;11.064;2022-11-15T11:04:24;100830.20;;;10.50
68745;BMP180;55731;45.456;11.064;2022-11-15T11:07:04;100828.40;;;10.52
68745;BMP180;55731;45.456;11.064;2022-11-15T11:10:03;100821.60;;;10.60
68745;BMP180;55731;45.456;11.064;2022-11-15T11:13:21;100815.40;;;10.60
68745;BMP180;55731;45.456;11.064;2022-11-15T11:16:09;100814.20;;;10.58
68745;BMP180;55731;45.456;11.064;2022-11-15T11:18:59;100813.40;;;10.60
68745;BMP180;55731;45.456;11.064;2022-11-15T11:21:51;100813.40;;;10.60
68745;BMP180;55731;45.456;11.064;2022-11-15T11:24:41;100806.80;;;10.70
68745;BMP180;55731;45.456;11.064;2022-11-15T11:27:36;100796.20;;;10.70
68745;BMP180;55731;45.456;11.064;2022-11-15T11:30:21;100795.40;;;10.80
68745;BMP180;55731;45.456;11.064;2022-11-15T11:33:12;100789.60;;;10.80
68745;BMP180;55731;45.456;11.064;2022-11-15T11:36:02;100787.40;;;10.90
68745;BMP180;55731;45.456;11.064;2022-11-15T11:39:02;100785.60;;;10.90
68745;BMP180;55731;45.456;11.064;2022-11-15T11:41:56;100780.60;;;10.90
68745;BMP180;55731;45.456;11.064;2022-11-15T11:44:44;100778.40;;;10.90
68745;BMP180;55731;45.456;11.064;2022-11-15T11:47:28;100775.80;;;10.90
68745;BMP180;55731;45.456;11.064;2022-11-15T11:50:17;100772.00;;;11.00
68745;BMP180;55731;45.456;11.064;2022-11-15T11:53:03;100769.20;;;11.00
68745;BMP180;55731;45.456;11.064;2022-11-15T11:55:43;100762.80;;;11.08
68745;BMP180;55731;45.456;11.064;2022-11-15T11:58:33;100763.20;;;11.00
68745;BMP180;55731;45.456;11.064;2022-11-15T12:01:20;100755.60;;;11.00
68745;BMP180;55731;45.456;11.064;2022-11-15T12:04:18;100753.80;;;11.00
68745;BMP180;55731;45.456;11.064;2022-11-15T12:07:03;100751.80;;;11.08
68745;BMP180;55731;45.456;11.064;2022-11-15T12:09:48;100745.40;;;11.10
68745;BMP180;55731;45.456;11.064;2022-11-15T12:12:36;100742.00;;;11.10
68745;BMP180;55731;45.456;11.064;2022-11-15T12:15:20;100735.20;;;11.20
68745;BMP180;55731;45.456;11.064;2022-11-15T12:18:00;100731.60;;;11.20
68745;BMP180;55731;45.456;11.064;2022-11-15T12:20:42;100727.60;;;11.20
68745;BMP180;55731;45.456;11.064;2022-11-15T12:23:27;100719.40;;;11.30
68745;BMP180;55731;45.456;11.064;2022-11-15T12:26:08;100715.40;;;11.30
68745;BMP180;55731;45.456;11.064;2022-11-15T12:28:52;100708.80;;;11.40
68745;BMP180;55731;45.456;11.064;2022-11-15T12:31:44;100705.80;;;11.40
68745;BMP180;55731;45.456;11.064;2022-11-15T12:37:52;100693.20;;;11.42
68745;BMP180;55731;45.456;11.064;2022-11-15T12:41:16;100691.60;;;11.50
68745;BMP180;55731;45.456;11.064;2022-11-15T12:43:57;100693.60;;;11.50
68745;BMP180;55731;45.456;11.064;2022-11-15T12:47:21;100686.80;;;11.50
68745;BMP180;55731;45.456;11.064;2022-11-15T12:49:57;100683.00;;;11.54
68745;BMP180;55731;45.456;11.064;2022-11-15T12:52:34;100678.80;;;11.52
68745;BMP180;55731;45.456;11.064;2022-11-15T12:55:34;100676.80;;;11.60
68745;BMP180;55731;45.456;11.064;2022-11-15T12:58:42;100673.00;;;11.60
68745;BMP180;55731;45.456;11.064;2022-11-15T13:01:55;100666.40;;;11.70
68745;BMP180;55731;45.456;11.064;2022-11-15T13:04:33;100664.40;;;11.70
68745;BMP180;55731;45.456;11.064;2022-11-15T13:10:34;100653.00;;;11.70
68745;BMP180;55731;45.456;11.064;2022-11-15T13:13:12;100650.00;;;11.70
68745;BMP180;55731;45.456;11.064;2022-11-15T13:16:09;100651.80;;;11.70
68745;BMP180;55731;45.456;11.064;2022-11-15T13:18:54;100645.80;;;11.66
68745;BMP180;55731;45.456;11.064;2022-11-15T13:21:32;100642.60;;;11.70
68745;BMP180;55731;45.456;11.064;2022-11-15T13:24:28;100640.20;;;11.70
68745;BMP180;55731;45.456;11.064;2022-11-15T13:27:12;100631.80;;;11.70
68745;BMP180;55731;45.456;11.064;2022-11-15T13:29:58;100629.80;;;11.70
68745;BMP180;55731;45.456;11.064;2022-11-15T13:32:37;100634.00;;;11.70
68745;BMP180;55731;45.456;11.064;2022-11-15T13:35:26;100625.40;;;11.80
68745;BMP180;55731;45.456;11.064;2022-11-15T13:38:17;100617.00;;;11.72
68745;BMP180;55731;45.456;11.064;2022-11-15T13:40:54;100615.60;;;11.70
68745;BMP180;55731;45.456;11.064;2022-11-15T13:43:36;100617.60;;;11.70
68745;BMP180;55731;45.456;11.064;2022-11-15T13:46:19;100608.40;;;11.60
68745;BMP180;55731;45.456;11.064;2022-11-15T13:49:00;100608.20;;;11.60
68745;BMP180;55731;45.456;11.064;2022-11-15T13:51:42;100603.20;;;11.70
68745;BMP180;55731;45.456;11.064;2022-11-15T13:54:27;100603.60;;;11.70
68745;BMP180;55731;45.456;11.064;2022-11-15T13:57:12;100603.80;;;11.70
68745;BMP180;55731;45.456;11.064;2022-11-15T13:59:54;100603.20;;;11.70
68745;BMP180;55731;45.456;11.064;2022-11-15T14:02:35;100601.40;;;11.64
68745;BMP180;55731;45.456;11.064;2022-11-15T14:05:20;100605.60;;;11.60
68745;BMP180;55731;45.456;11.064;2022-11-15T14:08:13;100606.20;;;11.62
68745;BMP180;55731;45.456;11.064;2022-11-15T14:14:16;100600.60;;;11.70
68745;BMP180;55731;45.456;11.064;2022-11-15T14:16:54;100599.00;;;11.70
68745;BMP180;55731;45.456;11.064;2022-11-15T14:19:42;100592.40;;;11.70
68745;BMP180;55731;45.456;11.064;2022-11-15T14:22:25;100588.00;;;11.70
68745;BMP180;55731;45.456;11.064;2022-11-15T14:25:19;100588.60;;;11.70
68745;BMP180;55731;45.456;11.064;2022-11-15T14:28:32;100592.20;;;11.70
68745;BMP180;55731;45.456;11.064;2022-11-15T14:31:16;100588.60;;;11.60
68745;BMP180;55731;45.456;11.064;2022-11-15T14:33:52;100587.60;;;11.60
68745;BMP180;55731;45.456;11.064;2022-11-15T14:36:28;100578.00;;;11.70
68745;BMP180;55731;45.456;11.064;2022-11-15T14:39:07;100574.40;;;11.70
68745;BMP180;55731;45.456;11.064;2022-11-15T14:41:44;100572.40;;;11.70
68745;BMP180;55731;45.456;11.064;2022-11-15T14:44:21;100570.00;;;11.80
68745;BMP180;55731;45.456;11.064;2022-11-15T14:46:58;100569.20;;;11.80
68745;BMP180;55731;45.456;11.064;2022-11-15T14:49:35;100563.80;;;11.80
68745;BMP180;55731;45.456;11.064;2022-11-15T14:52:29;100562.00;;;11.70
68745;BMP180;55731;45.456;11.064;2022-11-15T14:55:20;100564.00;;;11.70
68745;BMP180;55731;45.456;11.064;2022-11-15T14:57:58;100569.60;;;11.70
68745;BMP180;55731;45.456;11.064;2022-11-15T15:00:37;100563.00;;;11.70
68745;BMP180;55731;45.456;11.064;2022-11-15T15:03:14;100563.00;;;11.70
68745;BMP180;55731;45.456;11.064;2022-11-15T15:05:52;100557.60;;;11.70
68745;BMP180;55731;45.456;11.064;2022-11-15T15:08:30;100557.80;;;11.70
68745;BMP180;55731;45.456;11.064;2022-11-15T15:11:16;100549.40;;;11.70
68745;BMP180;55731;45.456;11.064;2022-11-15T15:13:52;100541.80;;;11.70
68745;BMP180;55731;45.456;11.064;2022-11-15T15:16:31;100543.00;;;11.70
68745;BMP180;55731;45.456;11.064;2022-11-15T15:19:08;100546.60;;;11.70
68745;BMP180;55731;45.456;11.064;2022-11-15T15:21:45;100548.80;;;11.70
68745;BMP180;55731;45.456;11.064;2022-11-15T15:24:22;100548.20;;;11.70
68745;BMP180;55731;45.456;11.064;2022-11-15T15:26:59;100556.20;;;11.70
68745;BMP180;55731;45.456;11.064;2022-11-15T15:29:36;100554.00;;;11.70
68745;BMP180;55731;45.456;11.064;2022-11-15T15:32:13;100548.00;;;11.70
68745;BMP180;55731;45.456;11.064;2022-11-15T15:34:50;100547.40;;;11.70
68745;BMP180;55731;45.456;11.064;2022-11-15T15:37:28;100549.40;;;11.70
68745;BMP180;55731;45.456;11.064;2022-11-15T15:40:14;100553.40;;;11.60
68745;BMP180;55731;45.456;11.064;2022-11-15T15:42:51;100551.40;;;11.70
68745;BMP180;55731;45.456;11.064;2022-11-15T15:45:29;100551.80;;;11.70
68745;BMP180;55731;45.456;11.064;2022-11-15T15:48:07;100547.00;;;11.70
68745;BMP180;55731;45.456;11.064;2022-11-15T15:50:45;100539.80;;;11.70
68745;BMP180;55731;45.456;11.064;2022-11-15T15:53:23;100538.00;;;11.70
68745;BMP180;55731;45.456;11.064;2022-11-15T15:56:00;100537.60;;;11.70
68745;BMP180;55731;45.456;11.064;2022-11-15T15:58:39;100545.40;;;11.60
68745;BMP180;55731;45.456;11.064;2022-11-15T16:01:17;100544.60;;;11.60
68745;BMP180;55731;45.456;11.064;2022-11-15T16:03:54;100540.80;;;11.60
68745;BMP180;55731;45.456;11.064;2022-11-15T16:06:43;100535.40;;;11.60
68745;BMP180;55731;45.456;11.064;2022-11-15T16:09:21;100536.20;;;11.60
68745;BMP180;55731;45.456;11.064;2022-11-15T16:12:17;100533.80;;;11.60
68745;BMP180;55731;45.456;11.064;2022-11-15T16:14:58;100532.20;;;11.60
68745;BMP180;55731;45.456;11.064;2022-11-15T16:17:37;100528.20;;;11.60
68745;BMP180;55731;45.456;11.064;2022-11-15T16:20:27;100525.60;;;11.60
68745;BMP180;55731;45.456;11.064;2022-11-15T16:23:07;100516.40;;;11.58
68745;BMP180;55731;45.456;11.064;2022-11-15T16:25:47;100520.40;;;11.54
68745;BMP180;55731;45.456;11.064;2022-11-15T16:28:26;100520.40;;;11.50
68745;BMP180;55731;45.456;11.064;2022-11-15T16:31:12;100520.00;;;11.50
68745;BMP180;55731;45.456;11.064;2022-11-15T16:33:49;100523.00;;;11.50
68745;BMP180;55731;45.456;11.064;2022-11-15T16:36:30;100522.80;;;11.50
68745;BMP180;55731;45.456;11.064;2022-11-15T16:39:08;100514.20;;;11.50
68745;BMP180;55731;45.456;11.064;2022-11-15T16:41:47;100511.40;;;11.50